sensor_id;sensor_type;location;lat;lon;timestamp;P1;durP1;ratioP1;P2;durP2;ratioP2
50815;SDS011;39717;47.324;8.788;2022-07-06T00:01:26;2.43;;;2.20;;
50815;SDS011;39717;47.324;8.788;2022-07-06T00:03:51;3.60;;;2.20;;
50815;SDS011;39717;47.324;8.788;2022-07-06T00:06:17;2.33;;;2.10;;
50815;SDS011;39717;47.324;8.788;2022-07-06T00:08:43;3.37;;;2.20;;
50815;SDS011;39717;47.324;8.788;2022-07-06T00:11:09;3.73;;;2.13;;
50815;SDS011;39717;47.324;8.788;2022-07-06T00:13:37;2.57;;;2.17;;
50815;SDS011;39717;47.324;8.788;2022-07-06T00:16:04;3.80;;;2.17;;
50815;SDS011;39717;47.324;8.788;2022-07-06T00:18:30;3.87;;;2.40;;
50815;SDS011;39717;47.324;8.788;2022-07-06T00:20:57;2.43;;;2.23;;
50815;SDS011;39717;47.324;8.788;2022-07-06T00:23:23;2.40;;;2.20;;
50815;SDS011;39717;47.324;8.788;2022-07-06T00:25:49;2.90;;;2.40;;
50815;SDS011;39717;47.324;8.788;2022-07-06T00:28:15;3.30;;;2.60;;
50815;SDS011;39717;47.324;8.788;2022-07-06T00:30:40;2.30;;;2.20;;
50815;SDS011;39717;47.324;8.788;2022-07-06T00:33:06;2.50;;;2.10;;
50815;SDS011;39717;47.324;8.788;2022-07-06T00:35:33;2.70;;;2.30;;
50815;SDS011;39717;47.324;8.788;2022-07-06T00:37:59;2.27;;;2.07;;
50815;SDS011;39717;47.324;8.788;2022-07-06T00:40:25;4.03;;;2.43;;
50815;SDS011;39717;47.324;8.788;2022-07-06T00:42:50;3.60;;;2.30;;
50815;SDS011;39717;47.324;8.788;2022-07-06T00:45:17;2.53;;;2.20;;
50815;SDS011;39717;47.324;8.788;2022-07-06T00:47:44;3.37;;;2.27;;
50815;SDS011;39717;47.324;8.788;2022-07-06T00:50:11;2.20;;;2.10;;
50815;SDS011;39717;47.324;8.788;2022-07-06T00:52:42;4.10;;;2.50;;
50815;SDS011;39717;47.324;8.788;2022-07-06T00:55:13;3.50;;;2.20;;
50815;SDS011;39717;47.324;8.788;2022-07-06T00:57:41;4.67;;;2.50;;
50815;SDS011;39717;47.324;8.788;2022-07-06T01:00:10;6.20;;;2.80;;
50815;SDS011;39717;47.324;8.788;2022-07-06T01:02:38;2.37;;;2.17;;
50815;SDS011;39717;47.324;8.788;2022-07-06T01:05:04;2.77;;;2.57;;
50815;SDS011;39717;47.324;8.788;2022-07-06T01:07:31;2.50;;;2.30;;
50815;SDS011;39717;47.324;8.788;2022-07-06T01:09:58;2.80;;;2.50;;
50815;SDS011;39717;47.324;8.788;2022-07-06T01:12:24;2.40;;;2.20;;
50815;SDS011;39717;47.324;8.788;2022-07-06T01:14:50;4.80;;;2.40;;
50815;SDS011;39717;47.324;8.788;2022-07-06T01:17:19;3.53;;;2.17;;
50815;SDS011;39717;47.324;8.788;2022-07-06T01:19:45;4.67;;;2.50;;
50815;SDS011;39717;47.324;8.788;2022-07-06T01:22:11;4.33;;;2.20;;
50815;SDS011;39717;47.324;8.788;2022-07-06T01:24:37;3.77;;;2.20;;
50815;SDS011;39717;47.324;8.788;2022-07-06T01:27:04;2.30;;;2.10;;
50815;SDS011;39717;47.324;8.788;2022-07-06T01:29:34;2.37;;;2.13;;
50815;SDS011;39717;47.324;8.788;2022-07-06T01:32:00;2.80;;;2.43;;
50815;SDS011;39717;47.324;8.788;2022-07-06T01:34:27;5.60;;;2.70;;
50815;SDS011;39717;47.324;8.788;2022-07-06T01:36:53;2.80;;;2.60;;
50815;SDS011;39717;47.324;8.788;2022-07-06T01:39:19;4.83;;;2.97;;
50815;SDS011;39717;47.324;8.788;2022-07-06T01:41:45;4.60;;;3.03;;
50815;SDS011;39717;47.324;8.788;2022-07-06T01:44:11;4.73;;;3.40;;
50815;SDS011;39717;47.324;8.788;2022-07-06T01:46:38;3.93;;;2.80;;
50815;SDS011;39717;47.324;8.788;2022-07-06T01:49:04;4.80;;;2.53;;
50815;SDS011;39717;47.324;8.788;2022-07-06T01:51:31;3.27;;;2.60;;
50815;SDS011;39717;47.324;8.788;2022-07-06T01:53:57;6.57;;;3.07;;
50815;SDS011;39717;47.324;8.788;2022-07-06T01:56:23;4.80;;;3.30;;
50815;SDS011;39717;47.324;8.788;2022-07-06T01:58:49;4.60;;;2.90;;
50815;SDS011;39717;47.324;8.788;2022-07-06T02:01:17;2.50;;;2.30;;
50815;SDS011;39717;47.324;8.788;2022-07-06T02:03:44;4.10;;;3.03;;
50815;SDS011;39717;47.324;8.788;2022-07-06T02:06:11;4.53;;;2.97;;
50815;SDS011;39717;47.324;8.788;2022-07-06T02:08:38;4.50;;;3.57;;
50815;SDS011;39717;47.324;8.788;2022-07-06T02:11:06;3.73;;;3.07;;
50815;SDS011;39717;47.324;8.788;2022-07-06T02:13:33;3.97;;;3.40;;
50815;SDS011;39717;47.324;8.788;2022-07-06T02:15:59;3.57;;;3.20;;
50815;SDS011;39717;47.324;8.788;2022-07-06T02:18:26;3.47;;;3.17;;
50815;SDS011;39717;47.324;8.788;2022-07-06T02:20:52;4.60;;;3.30;;
50815;SDS011;39717;47.324;8.788;2022-07-06T02:23:17;3.70;;;3.20;;
50815;SDS011;39717;47.324;8.788;2022-07-06T02:25:43;5.07;;;2.87;;
50815;SDS011;39717;47.324;8.788;2022-07-06T02:28:10;5.03;;;2.90;;
50815;SDS011;39717;47.324;8.788;2022-07-06T02:30:35;3.43;;;3.07;;
50815;SDS011;39717;47.324;8.788;2022-07-06T02:33:01;3.23;;;2.80;;
50815;SDS011;39717;47.324;8.788;2022-07-06T02:35:27;4.93;;;3.00;;
50815;SDS011;39717;47.324;8.788;2022-07-06T02:37:53;3.43;;;3.03;;
50815;SDS011;39717;47.324;8.788;2022-07-06T02:40:19;3.40;;;3.07;;
50815;SDS011;39717;47.324;8.788;2022-07-06T02:42:45;3.00;;;2.80;;
50815;SDS011;39717;47.324;8.788;2022-07-06T02:45:10;2.97;;;2.77;;
50815;SDS011;39717;47.324;8.788;2022-07-06T02:47:36;5.43;;;2.90;;
50815;SDS011;39717;47.324;8.788;2022-07-06T02:50:03;4.53;;;3.10;;
50815;SDS011;39717;47.324;8.788;2022-07-06T02:52:30;2.70;;;2.50;;
50815;SDS011;39717;47.324;8.788;2022-07-06T02:54:56;2.90;;;2.70;;
50815;SDS011;39717;47.324;8.788;2022-07-06T02:57:21;4.87;;;3.00;;
50815;SDS011;39717;47.324;8.788;2022-07-06T02:59:47;3.10;;;2.80;;
50815;SDS011;39717;47.324;8.788;2022-07-06T03:02:17;2.80;;;2.60;;
50815;SDS011;39717;47.324;8.788;2022-07-06T03:04:43;3.80;;;2.87;;
50815;SDS011;39717;47.324;8.788;2022-07-06T03:07:09;4.13;;;2.83;;
50815;SDS011;39717;47.324;8.788;2022-07-06T03:09:35;4.13;;;3.13;;
50815;SDS011;39717;47.324;8.788;2022-07-06T03:12:02;6.57;;;3.37;;
50815;SDS011;39717;47.324;8.788;2022-07-06T03:14:28;4.50;;;3.10;;
50815;SDS011;39717;47.324;8.788;2022-07-06T03:16:54;3.33;;;3.03;;
50815;SDS011;39717;47.324;8.788;2022-07-06T03:19:20;3.37;;;2.90;;
50815;SDS011;39717;47.324;8.788;2022-07-06T03:21:45;4.10;;;2.93;;
50815;SDS011;39717;47.324;8.788;2022-07-06T03:24:11;5.33;;;3.47;;
50815;SDS011;39717;47.324;8.788;2022-07-06T03:26:37;4.67;;;3.60;;
50815;SDS011;39717;47.324;8.788;2022-07-06T03:29:03;6.83;;;4.57;;
50815;SDS011;39717;47.324;8.788;2022-07-06T03:31:28;9.97;;;5.70;;
50815;SDS011;39717;47.324;8.788;2022-07-06T03:33:54;10.37;;;5.77;;
50815;SDS011;39717;47.324;8.788;2022-07-06T03:36:20;9.23;;;5.47;;
50815;SDS011;39717;47.324;8.788;2022-07-06T03:38:46;9.40;;;4.80;;
50815;SDS011;39717;47.324;8.788;2022-07-06T03:41:12;7.10;;;4.20;;
50815;SDS011;39717;47.324;8.788;2022-07-06T03:43:37;10.70;;;4.57;;
50815;SDS011;39717;47.324;8.788;2022-07-06T03:46:03;5.77;;;3.37;;
50815;SDS011;39717;47.324;8.788;2022-07-06T03:48:29;5.40;;;3.47;;
50815;SDS011;39717;47.324;8.788;2022-07-06T03:50:55;3.70;;;3.00;;
50815;SDS011;39717;47.324;8.788;2022-07-06T03:53:20;6.70;;;3.60;;
50815;SDS011;39717;47.324;8.788;2022-07-06T03:55:46;5.63;;;3.30;;
50815;SDS011;39717;47.324;8.788;2022-07-06T03:58:32;5.93;;;3.60;;
50815;SDS011;39717;47.324;8.788;2022-07-06T04:00:59;4.50;;;3.37;;
50815;SDS011;39717;47.324;8.788;2022-07-06T04:03:25;5.43;;;3.30;;
50815;SDS011;39717;47.324;8.788;2022-07-06T04:05:51;5.63;;;3.30;;
50815;SDS011;39717;47.324;8.788;2022-07-06T04:08:17;9.03;;;4.73;;
50815;SDS011;39717;47.324;8.788;2022-07-06T04:10:43;10.60;;;5.87;;
50815;SDS011;39717;47.324;8.788;2022-07-06T04:13:08;7.63;;;4.27;;
50815;SDS011;39717;47.324;8.788;2022-07-06T04:15:34;8.03;;;4.40;;
50815;SDS011;39717;47.324;8.788;2022-07-06T04:18:00;5.80;;;4.03;;
50815;SDS011;39717;47.324;8.788;2022-07-06T04:20:26;9.50;;;4.10;;
50815;SDS011;39717;47.324;8.788;2022-07-06T04:22:51;5.97;;;3.93;;
50815;SDS011;39717;47.324;8.788;2022-07-06T04:25:17;6.63;;;3.97;;
50815;SDS011;39717;47.324;8.788;2022-07-06T04:27:43;5.17;;;3.57;;
50815;SDS011;39717;47.324;8.788;2022-07-06T04:30:10;6.20;;;3.33;;
50815;SDS011;39717;47.324;8.788;2022-07-06T04:32:37;3.47;;;3.17;;
50815;SDS011;39717;47.324;8.788;2022-07-06T04:35:04;3.57;;;3.13;;
50815;SDS011;39717;47.324;8.788;2022-07-06T04:37:30;3.73;;;2.67;;
50815;SDS011;39717;47.324;8.788;2022-07-06T04:39:57;8.33;;;3.70;;
50815;SDS011;39717;47.324;8.788;2022-07-06T04:42:23;3.30;;;3.00;;
50815;SDS011;39717;47.324;8.788;2022-07-06T04:44:49;7.97;;;3.30;;
50815;SDS011;39717;47.324;8.788;2022-07-06T04:47:16;5.67;;;3.03;;
50815;SDS011;39717;47.324;8.788;2022-07-06T04:49:42;3.47;;;3.10;;
50815;SDS011;39717;47.324;8.788;2022-07-06T04:52:08;3.93;;;3.17;;
50815;SDS011;39717;47.324;8.788;2022-07-06T04:54:34;5.20;;;3.10;;
50815;SDS011;39717;47.324;8.788;2022-07-06T04:56:59;7.83;;;3.37;;
50815;SDS011;39717;47.324;8.788;2022-07-06T04:59:25;3.67;;;3.17;;
50815;SDS011;39717;47.324;8.788;2022-07-06T05:01:51;4.67;;;3.37;;
50815;SDS011;39717;47.324;8.788;2022-07-06T05:04:17;4.23;;;3.37;;
50815;SDS011;39717;47.324;8.788;2022-07-06T05:06:46;4.20;;;3.63;;
50815;SDS011;39717;47.324;8.788;2022-07-06T05:09:12;4.70;;;3.87;;
50815;SDS011;39717;47.324;8.788;2022-07-06T05:11:39;3.83;;;3.30;;
50815;SDS011;39717;47.324;8.788;2022-07-06T05:14:05;6.27;;;3.57;;
50815;SDS011;39717;47.324;8.788;2022-07-06T05:16:31;3.97;;;3.57;;
50815;SDS011;39717;47.324;8.788;2022-07-06T05:18:57;3.60;;;3.17;;
50815;SDS011;39717;47.324;8.788;2022-07-06T05:21:23;3.40;;;3.10;;
50815;SDS011;39717;47.324;8.788;2022-07-06T05:23:49;4.93;;;3.30;;
50815;SDS011;39717;47.324;8.788;2022-07-06T05:26:15;3.40;;;3.10;;
50815;SDS011;39717;47.324;8.788;2022-07-06T05:28:41;3.93;;;3.47;;
50815;SDS011;39717;47.324;8.788;2022-07-06T05:31:07;3.53;;;3.20;;
50815;SDS011;39717;47.324;8.788;2022-07-06T05:33:33;3.13;;;2.80;;
50815;SDS011;39717;47.324;8.788;2022-07-06T05:35:59;3.97;;;2.90;;
50815;SDS011;39717;47.324;8.788;2022-07-06T05:38:24;4.67;;;3.07;;
50815;SDS011;39717;47.324;8.788;2022-07-06T05:40:50;5.07;;;2.93;;
50815;SDS011;39717;47.324;8.788;2022-07-06T05:43:16;3.67;;;2.70;;
50815;SDS011;39717;47.324;8.788;2022-07-06T05:45:42;4.47;;;2.30;;
50815;SDS011;39717;47.324;8.788;2022-07-06T05:48:08;4.60;;;2.90;;
50815;SDS011;39717;47.324;8.788;2022-07-06T05:50:53;4.93;;;2.80;;
50815;SDS011;39717;47.324;8.788;2022-07-06T05:53:19;3.40;;;3.00;;
50815;SDS011;39717;47.324;8.788;2022-07-06T05:55:45;5.70;;;2.40;;
50815;SDS011;39717;47.324;8.788;2022-07-06T05:58:12;4.30;;;2.87;;
50815;SDS011;39717;47.324;8.788;2022-07-06T06:00:38;4.03;;;2.80;;
50815;SDS011;39717;47.324;8.788;2022-07-06T06:03:04;2.83;;;2.60;;
50815;SDS011;39717;47.324;8.788;2022-07-06T06:05:30;3.93;;;2.90;;
50815;SDS011;39717;47.324;8.788;2022-07-06T06:07:55;3.90;;;2.80;;
50815;SDS011;39717;47.324;8.788;2022-07-06T06:10:21;2.70;;;2.50;;
50815;SDS011;39717;47.324;8.788;2022-07-06T06:12:48;5.00;;;2.80;;
50815;SDS011;39717;47.324;8.788;2022-07-06T06:15:16;3.53;;;2.50;;
50815;SDS011;39717;47.324;8.788;2022-07-06T06:17:42;2.70;;;2.50;;
50815;SDS011;39717;47.324;8.788;2022-07-06T06:20:10;3.20;;;2.53;;
50815;SDS011;39717;47.324;8.788;2022-07-06T06:22:45;3.90;;;2.50;;
50815;SDS011;39717;47.324;8.788;2022-07-06T06:25:27;4.77;;;2.83;;
50815;SDS011;39717;47.324;8.788;2022-07-06T06:27:58;4.73;;;2.67;;
50815;SDS011;39717;47.324;8.788;2022-07-06T06:30:24;3.23;;;2.70;;
50815;SDS011;39717;47.324;8.788;2022-07-06T06:32:51;3.80;;;3.10;;
50815;SDS011;39717;47.324;8.788;2022-07-06T06:35:27;3.73;;;2.40;;
50815;SDS011;39717;47.324;8.788;2022-07-06T06:37:53;4.40;;;2.93;;
50815;SDS011;39717;47.324;8.788;2022-07-06T06:40:19;2.70;;;2.20;;
50815;SDS011;39717;47.324;8.788;2022-07-06T06:42:45;3.13;;;2.50;;
50815;SDS011;39717;47.324;8.788;2022-07-06T06:45:11;3.53;;;2.47;;
50815;SDS011;39717;47.324;8.788;2022-07-06T06:47:36;3.07;;;2.30;;
50815;SDS011;39717;47.324;8.788;2022-07-06T06:50:02;3.57;;;2.80;;
50815;SDS011;39717;47.324;8.788;2022-07-06T06:52:28;4.23;;;2.73;;
50815;SDS011;39717;47.324;8.788;2022-07-06T06:54:54;5.53;;;2.77;;
50815;SDS011;39717;47.324;8.788;2022-07-06T06:57:20;4.03;;;3.23;;
50815;SDS011;39717;47.324;8.788;2022-07-06T06:59:46;4.50;;;3.03;;
50815;SDS011;39717;47.324;8.788;2022-07-06T07:02:11;4.40;;;2.87;;
50815;SDS011;39717;47.324;8.788;2022-07-06T07:04:37;5.63;;;3.13;;
50815;SDS011;39717;47.324;8.788;2022-07-06T07:07:03;4.20;;;3.00;;
50815;SDS011;39717;47.324;8.788;2022-07-06T07:09:29;3.50;;;3.03;;
50815;SDS011;39717;47.324;8.788;2022-07-06T07:11:54;4.40;;;3.10;;
50815;SDS011;39717;47.324;8.788;2022-07-06T07:14:20;4.37;;;3.20;;
50815;SDS011;39717;47.324;8.788;2022-07-06T07:16:46;5.87;;;3.47;;
50815;SDS011;39717;47.324;8.788;2022-07-06T07:19:12;5.00;;;2.83;;
50815;SDS011;39717;47.324;8.788;2022-07-06T07:21:37;4.30;;;3.20;;
50815;SDS011;39717;47.324;8.788;2022-07-06T07:24:03;6.97;;;3.83;;
50815;SDS011;39717;47.324;8.788;2022-07-06T07:26:29;7.30;;;3.30;;
50815;SDS011;39717;47.324;8.788;2022-07-06T07:28:55;4.33;;;2.93;;
50815;SDS011;39717;47.324;8.788;2022-07-06T07:31:20;3.33;;;3.03;;
50815;SDS011;39717;47.324;8.788;2022-07-06T07:33:46;6.50;;;2.87;;
50815;SDS011;39717;47.324;8.788;2022-07-06T07:36:12;3.50;;;3.20;;
50815;SDS011;39717;47.324;8.788;2022-07-06T07:38:38;4.13;;;3.03;;
50815;SDS011;39717;47.324;8.788;2022-07-06T07:41:03;4.90;;;2.90;;
50815;SDS011;39717;47.324;8.788;2022-07-06T07:43:31;3.90;;;3.10;;
50815;SDS011;39717;47.324;8.788;2022-07-06T07:45:57;4.37;;;3.13;;
50815;SDS011;39717;47.324;8.788;2022-07-06T07:48:22;5.10;;;3.10;;
50815;SDS011;39717;47.324;8.788;2022-07-06T07:50:48;3.40;;;3.00;;
50815;SDS011;39717;47.324;8.788;2022-07-06T07:53:14;3.77;;;3.00;;
50815;SDS011;39717;47.324;8.788;2022-07-06T07:55:40;5.60;;;2.90;;
50815;SDS011;39717;47.324;8.788;2022-07-06T07:58:05;4.03;;;2.60;;
50815;SDS011;39717;47.324;8.788;2022-07-06T08:00:31;5.17;;;3.10;;
50815;SDS011;39717;47.324;8.788;2022-07-06T08:02:57;3.57;;;2.80;;
50815;SDS011;39717;47.324;8.788;2022-07-06T08:05:23;5.30;;;3.10;;
50815;SDS011;39717;47.324;8.788;2022-07-06T08:07:49;3.37;;;2.57;;
50815;SDS011;39717;47.324;8.788;2022-07-06T08:10:14;3.67;;;2.73;;
50815;SDS011;39717;47.324;8.788;2022-07-06T08:12:40;4.23;;;2.80;;
50815;SDS011;39717;47.324;8.788;2022-07-06T08:15:06;2.80;;;2.60;;
50815;SDS011;39717;47.324;8.788;2022-07-06T08:17:32;2.83;;;2.30;;
50815;SDS011;39717;47.324;8.788;2022-07-06T08:19:58;6.73;;;2.83;;
50815;SDS011;39717;47.324;8.788;2022-07-06T08:22:23;5.00;;;2.50;;
50815;SDS011;39717;47.324;8.788;2022-07-06T08:24:49;3.90;;;2.67;;
50815;SDS011;39717;47.324;8.788;2022-07-06T08:27:15;3.50;;;2.60;;
50815;SDS011;39717;47.324;8.788;2022-07-06T08:29:41;3.97;;;2.57;;
50815;SDS011;39717;47.324;8.788;2022-07-06T08:32:07;5.07;;;2.90;;
50815;SDS011;39717;47.324;8.788;2022-07-06T08:34:33;3.43;;;2.33;;
50815;SDS011;39717;47.324;8.788;2022-07-06T08:36:59;4.17;;;2.50;;
50815;SDS011;39717;47.324;8.788;2022-07-06T08:39:24;5.13;;;2.87;;
50815;SDS011;39717;47.324;8.788;2022-07-06T08:41:50;4.10;;;2.97;;
50815;SDS011;39717;47.324;8.788;2022-07-06T08:44:17;3.80;;;2.30;;
50815;SDS011;39717;47.324;8.788;2022-07-06T08:46:44;2.90;;;2.60;;
50815;SDS011;39717;47.324;8.788;2022-07-06T08:49:14;4.37;;;2.70;;
50815;SDS011;39717;47.324;8.788;2022-07-06T08:51:42;3.33;;;2.70;;
50815;SDS011;39717;47.324;8.788;2022-07-06T08:54:09;2.70;;;2.30;;
50815;SDS011;39717;47.324;8.788;2022-07-06T08:56:37;5.53;;;3.33;;
50815;SDS011;39717;47.324;8.788;2022-07-06T08:59:04;4.77;;;2.47;;
50815;SDS011;39717;47.324;8.788;2022-07-06T09:01:34;4.63;;;2.63;;
50815;SDS011;39717;47.324;8.788;2022-07-06T09:04:02;3.37;;;2.73;;
50815;SDS011;39717;47.324;8.788;2022-07-06T09:06:31;4.20;;;2.30;;
50815;SDS011;39717;47.324;8.788;2022-07-06T09:08:58;2.50;;;2.13;;
50815;SDS011;39717;47.324;8.788;2022-07-06T09:11:26;4.83;;;2.47;;
50815;SDS011;39717;47.324;8.788;2022-07-06T09:13:52;4.07;;;2.10;;
50815;SDS011;39717;47.324;8.788;2022-07-06T09:16:26;2.83;;;2.60;;
50815;SDS011;39717;47.324;8.788;2022-07-06T09:18:53;5.23;;;3.10;;
50815;SDS011;39717;47.324;8.788;2022-07-06T09:21:24;4.50;;;2.80;;
50815;SDS011;39717;47.324;8.788;2022-07-06T09:23:55;2.67;;;2.37;;
50815;SDS011;39717;47.324;8.788;2022-07-06T09:26:22;5.07;;;2.47;;
50815;SDS011;39717;47.324;8.788;2022-07-06T09:28:49;3.03;;;2.73;;
50815;SDS011;39717;47.324;8.788;2022-07-06T09:31:15;3.80;;;2.37;;
50815;SDS011;39717;47.324;8.788;2022-07-06T09:39:22;3.30;;;3.00;;
50815;SDS011;39717;47.324;8.788;2022-07-06T09:41:53;2.80;;;2.60;;
50815;SDS011;39717;47.324;8.788;2022-07-06T09:44:22;4.80;;;2.70;;
50815;SDS011;39717;47.324;8.788;2022-07-06T09:46:56;5.90;;;2.80;;
50815;SDS011;39717;47.324;8.788;2022-07-06T09:49:24;5.27;;;2.90;;
50815;SDS011;39717;47.324;8.788;2022-07-06T09:51:51;3.77;;;2.87;;
50815;SDS011;39717;47.324;8.788;2022-07-06T09:54:18;6.07;;;3.10;;
50815;SDS011;39717;47.324;8.788;2022-07-06T09:56:45;4.10;;;3.00;;
50815;SDS011;39717;47.324;8.788;2022-07-06T09:59:17;6.37;;;3.33;;
50815;SDS011;39717;47.324;8.788;2022-07-06T10:01:46;4.17;;;2.73;;
50815;SDS011;39717;47.324;8.788;2022-07-06T10:04:15;3.50;;;3.00;;
50815;SDS011;39717;47.324;8.788;2022-07-06T10:06:44;3.83;;;2.30;;
50815;SDS011;39717;47.324;8.788;2022-07-06T10:09:11;5.13;;;2.40;;
50815;SDS011;39717;47.324;8.788;2022-07-06T10:11:38;2.73;;;2.37;;
50815;SDS011;39717;47.324;8.788;2022-07-06T10:14:06;2.93;;;2.40;;
50815;SDS011;39717;47.324;8.788;2022-07-06T10:16:34;3.27;;;2.30;;
50815;SDS011;39717;47.324;8.788;2022-07-06T10:19:01;2.70;;;2.50;;
50815;SDS011;39717;47.324;8.788;2022-07-06T10:21:28;4.60;;;2.47;;
50815;SDS011;39717;47.324;8.788;2022-07-06T10:23:54;4.40;;;2.30;;
50815;SDS011;39717;47.324;8.788;2022-07-06T10:26:21;3.97;;;2.57;;
50815;SDS011;39717;47.324;8.788;2022-07-06T10:28:48;4.07;;;2.47;;
50815;SDS011;39717;47.324;8.788;2022-07-06T10:31:14;4.03;;;2.77;;
50815;SDS011;39717;47.324;8.788;2022-07-06T10:33:41;3.30;;;2.30;;
50815;SDS011;39717;47.324;8.788;2022-07-06T10:36:08;2.80;;;2.60;;
50815;SDS011;39717;47.324;8.788;2022-07-06T10:38:34;2.40;;;2.20;;
50815;SDS011;39717;47.324;8.788;2022-07-06T10:41:08;3.27;;;2.17;;
50815;SDS011;39717;47.324;8.788;2022-07-06T10:46:10;2.93;;;2.07;;
50815;SDS011;39717;47.324;8.788;2022-07-06T10:48:41;2.43;;;2.10;;
50815;SDS011;39717;47.324;8.788;2022-07-06T10:51:08;2.50;;;2.20;;
50815;SDS011;39717;47.324;8.788;2022-07-06T10:53:35;2.77;;;2.30;;
50815;SDS011;39717;47.324;8.788;2022-07-06T10:56:07;2.53;;;2.33;;
50815;SDS011;39717;47.324;8.788;2022-07-06T11:01:06;3.33;;;2.23;;
50815;SDS011;39717;47.324;8.788;2022-07-06T11:03:33;3.20;;;1.97;;
50815;SDS011;39717;47.324;8.788;2022-07-06T11:08:42;6.33;;;2.50;;
50815;SDS011;39717;47.324;8.788;2022-07-06T11:13:55;3.27;;;2.07;;
50815;SDS011;39717;47.324;8.788;2022-07-06T11:16:23;2.40;;;2.03;;
50815;SDS011;39717;47.324;8.788;2022-07-06T11:21:44;4.37;;;2.00;;
50815;SDS011;39717;47.324;8.788;2022-07-06T11:24:12;2.83;;;2.20;;
50815;SDS011;39717;47.324;8.788;2022-07-06T11:26:39;3.20;;;2.00;;
50815;SDS011;39717;47.324;8.788;2022-07-06T11:29:07;3.80;;;2.00;;
50815;SDS011;39717;47.324;8.788;2022-07-06T11:31:34;2.07;;;1.93;;
50815;SDS011;39717;47.324;8.788;2022-07-06T11:34:03;2.67;;;2.30;;
50815;SDS011;39717;47.324;8.788;2022-07-06T11:36:29;2.27;;;2.00;;
50815;SDS011;39717;47.324;8.788;2022-07-06T11:38:55;2.10;;;1.98;;
50815;SDS011;39717;47.324;8.788;2022-07-06T11:41:21;5.03;;;2.20;;
50815;SDS011;39717;47.324;8.788;2022-07-06T11:43:47;4.43;;;2.30;;
50815;SDS011;39717;47.324;8.788;2022-07-06T11:46:26;2.53;;;2.13;;
50815;SDS011;39717;47.324;8.788;2022-07-06T11:48:56;2.33;;;2.13;;
50815;SDS011;39717;47.324;8.788;2022-07-06T11:51:30;2.70;;;2.03;;
50815;SDS011;39717;47.324;8.788;2022-07-06T11:53:58;3.05;;;2.38;;
50815;SDS011;39717;47.324;8.788;2022-07-06T11:56:26;2.37;;;2.17;;
50815;SDS011;39717;47.324;8.788;2022-07-06T11:58:54;2.10;;;1.90;;
50815;SDS011;39717;47.324;8.788;2022-07-06T12:01:24;2.43;;;2.10;;
50815;SDS011;39717;47.324;8.788;2022-07-06T12:03:52;4.53;;;2.00;;
50815;SDS011;39717;47.324;8.788;2022-07-06T12:06:22;2.53;;;2.00;;
50815;SDS011;39717;47.324;8.788;2022-07-06T12:08:59;2.72;;;2.08;;
50815;SDS011;39717;47.324;8.788;2022-07-06T12:11:30;2.45;;;2.25;;
50815;SDS011;39717;47.324;8.788;2022-07-06T12:13:59;2.25;;;2.08;;
50815;SDS011;39717;47.324;8.788;2022-07-06T12:16:34;3.50;;;2.23;;
50815;SDS011;39717;47.324;8.788;2022-07-06T12:19:04;2.73;;;2.33;;
50815;SDS011;39717;47.324;8.788;2022-07-06T12:21:30;2.43;;;2.23;;
50815;SDS011;39717;47.324;8.788;2022-07-06T12:23:58;3.60;;;2.47;;
50815;SDS011;39717;47.324;8.788;2022-07-06T12:26:25;3.73;;;2.17;;
50815;SDS011;39717;47.324;8.788;2022-07-06T12:31:36;2.23;;;2.10;;
50815;SDS011;39717;47.324;8.788;2022-07-06T12:34:03;2.77;;;2.57;;
50815;SDS011;39717;47.324;8.788;2022-07-06T12:36:30;3.47;;;2.40;;
50815;SDS011;39717;47.324;8.788;2022-07-06T12:38:57;6.23;;;2.40;;
50815;SDS011;39717;47.324;8.788;2022-07-06T12:44:00;3.13;;;1.90;;
50815;SDS011;39717;47.324;8.788;2022-07-06T12:46:30;2.50;;;2.30;;
50815;SDS011;39717;47.324;8.788;2022-07-06T12:48:57;2.80;;;2.20;;
50815;SDS011;39717;47.324;8.788;2022-07-06T12:51:24;3.33;;;2.57;;
50815;SDS011;39717;47.324;8.788;2022-07-06T12:53:50;2.20;;;2.10;;
50815;SDS011;39717;47.324;8.788;2022-07-06T12:56:16;4.20;;;2.40;;
50815;SDS011;39717;47.324;8.788;2022-07-06T12:59:20;4.03;;;2.50;;
50815;SDS011;39717;47.324;8.788;2022-07-06T13:01:35;3.57;;;2.30;;
50815;SDS011;39717;47.324;8.788;2022-07-06T13:04:06;2.30;;;2.20;;
50815;SDS011;39717;47.324;8.788;2022-07-06T13:06:34;2.93;;;2.20;;
50815;SDS011;39717;47.324;8.788;2022-07-06T13:09:02;2.80;;;2.10;;
50815;SDS011;39717;47.324;8.788;2022-07-06T13:11:28;2.40;;;2.20;;
50815;SDS011;39717;47.324;8.788;2022-07-06T13:13:54;3.93;;;2.50;;
50815;SDS011;39717;47.324;8.788;2022-07-06T13:16:20;1.93;;;1.73;;
50815;SDS011;39717;47.324;8.788;2022-07-06T13:18:49;2.40;;;2.20;;
50815;SDS011;39717;47.324;8.788;2022-07-06T13:21:15;2.17;;;2.00;;
50815;SDS011;39717;47.324;8.788;2022-07-06T13:23:41;6.37;;;1.87;;
50815;SDS011;39717;47.324;8.788;2022-07-06T13:26:07;2.20;;;2.00;;
50815;SDS011;39717;47.324;8.788;2022-07-06T13:28:33;2.60;;;2.07;;
50815;SDS011;39717;47.324;8.788;2022-07-06T13:31:00;4.20;;;2.47;;
50815;SDS011;39717;47.324;8.788;2022-07-06T13:33:26;4.40;;;1.97;;
50815;SDS011;39717;47.324;8.788;2022-07-06T13:35:52;3.13;;;2.13;;
50815;SDS011;39717;47.324;8.788;2022-07-06T13:38:18;3.37;;;2.10;;
50815;SDS011;39717;47.324;8.788;2022-07-06T13:40:44;2.70;;;2.33;;
50815;SDS011;39717;47.324;8.788;2022-07-06T13:43:10;2.40;;;2.10;;
50815;SDS011;39717;47.324;8.788;2022-07-06T13:45:36;2.00;;;1.90;;
50815;SDS011;39717;47.324;8.788;2022-07-06T13:48:02;2.77;;;2.00;;
50815;SDS011;39717;47.324;8.788;2022-07-06T13:50:28;7.13;;;2.63;;
50815;SDS011;39717;47.324;8.788;2022-07-06T13:53:00;3.23;;;2.30;;
50815;SDS011;39717;47.324;8.788;2022-07-06T13:55:26;2.40;;;2.20;;
50815;SDS011;39717;47.324;8.788;2022-07-06T13:57:52;2.50;;;2.30;;
50815;SDS011;39717;47.324;8.788;2022-07-06T14:00:18;2.30;;;2.10;;
50815;SDS011;39717;47.324;8.788;2022-07-06T14:02:45;2.73;;;2.10;;
50815;SDS011;39717;47.324;8.788;2022-07-06T14:05:11;2.30;;;2.10;;
50815;SDS011;39717;47.324;8.788;2022-07-06T14:07:37;3.03;;;2.10;;
50815;SDS011;39717;47.324;8.788;2022-07-06T14:10:03;2.77;;;2.13;;
50815;SDS011;39717;47.324;8.788;2022-07-06T14:12:29;2.93;;;2.27;;
50815;SDS011;39717;47.324;8.788;2022-07-06T14:14:55;3.03;;;2.27;;
50815;SDS011;39717;47.324;8.788;2022-07-06T14:17:21;4.40;;;2.37;;
50815;SDS011;39717;47.324;8.788;2022-07-06T14:19:48;3.23;;;2.10;;
50815;SDS011;39717;47.324;8.788;2022-07-06T14:22:14;2.33;;;2.13;;
50815;SDS011;39717;47.324;8.788;2022-07-06T14:24:41;2.40;;;2.00;;
50815;SDS011;39717;47.324;8.788;2022-07-06T14:27:07;2.77;;;2.50;;
50815;SDS011;39717;47.324;8.788;2022-07-06T14:29:33;2.53;;;2.23;;
50815;SDS011;39717;47.324;8.788;2022-07-06T14:31:59;2.33;;;2.10;;
50815;SDS011;39717;47.324;8.788;2022-07-06T14:34:25;3.17;;;2.17;;
50815;SDS011;39717;47.324;8.788;2022-07-06T14:36:51;3.03;;;2.20;;
50815;SDS011;39717;47.324;8.788;2022-07-06T14:39:18;3.57;;;2.10;;
50815;SDS011;39717;47.324;8.788;2022-07-06T14:41:44;3.67;;;2.20;;
50815;SDS011;39717;47.324;8.788;2022-07-06T14:44:10;2.20;;;2.10;;
50815;SDS011;39717;47.324;8.788;2022-07-06T14:46:37;2.43;;;2.07;;
50815;SDS011;39717;47.324;8.788;2022-07-06T14:49:03;2.90;;;1.87;;
50815;SDS011;39717;47.324;8.788;2022-07-06T14:51:29;2.57;;;1.97;;
50815;SDS011;39717;47.324;8.788;2022-07-06T14:53:55;2.40;;;1.83;;
50815;SDS011;39717;47.324;8.788;2022-07-06T14:56:21;3.20;;;2.13;;
50815;SDS011;39717;47.324;8.788;2022-07-06T14:58:47;3.83;;;2.20;;
50815;SDS011;39717;47.324;8.788;2022-07-06T15:01:13;2.37;;;2.00;;
50815;SDS011;39717;47.324;8.788;2022-07-06T15:03:39;1.87;;;1.77;;
50815;SDS011;39717;47.324;8.788;2022-07-06T15:06:06;5.23;;;1.80;;
50815;SDS011;39717;47.324;8.788;2022-07-06T15:08:32;2.37;;;2.10;;
50815;SDS011;39717;47.324;8.788;2022-07-06T15:10:58;5.03;;;2.10;;